createdAt,value
2023-01-25T00:03:38.541Z,28.45
2023-01-25T00:07:41.337Z,30.25
2023-01-25T00:11:45.600Z,34.67
2023-01-25T00:15:48.458Z,36.10
2023-01-25T00:19:52.643Z,32.60
2023-01-25T00:23:55.935Z,32.50
2023-01-25T00:27:58.810Z,28.85
2023-01-25T00:32:28.660Z,28.45
2023-01-25T00:36:41.751Z,32.95
2023-01-25T00:40:45.957Z,31.05
2023-01-25T00:44:49.399Z,32.08
2023-01-25T00:48:54.725Z,33.38
2023-01-25T00:52:58.964Z,30.70
2023-01-25T00:57:01.917Z,30.60
2023-01-25T01:01:05.810Z,35.08
2023-01-25T01:05:09.713Z,32.75
2023-01-25T01:09:16.608Z,38.70
2023-01-25T01:13:19.434Z,35.50
2023-01-25T01:17:23.733Z,39.63
2023-01-25T01:21:26.748Z,39.65
2023-01-25T01:25:30.917Z,47.65
2023-01-25T01:29:33.759Z,42.25
2023-01-25T01:33:36.735Z,46.15
2023-01-25T01:37:43.207Z,37.95
2023-01-25T01:41:47.394Z,35.20
2023-01-25T01:45:56.468Z,33.60
2023-01-25T01:50:18.085Z,37.30
2023-01-25T01:54:25.897Z,35.13
2023-01-25T01:58:33.046Z,35.65
2023-01-25T02:02:36.477Z,32.58
2023-01-25T02:06:47.093Z,36.90
2023-01-25T02:10:52.258Z,32.08
2023-01-25T02:14:57.216Z,35.00
2023-01-25T02:19:02.643Z,33.83
2023-01-25T02:23:17.625Z,36.90
2023-01-25T02:27:22.499Z,24.75
2023-01-25T02:31:25.777Z,36.13
2023-01-25T02:35:39.819Z,29.33
2023-01-25T02:39:43.519Z,35.10
2023-01-25T02:43:47.746Z,27.30
2023-01-25T02:47:50.630Z,29.35
2023-01-25T02:51:57.383Z,29.98
2023-01-25T02:56:00.866Z,29.30
2023-01-25T03:00:07.251Z,30.60
2023-01-25T03:04:10.824Z,24.50
2023-01-25T03:08:13.735Z,25.75
2023-01-25T03:12:17.316Z,27.13
2023-01-25T03:16:23.313Z,25.98
2023-01-25T03:20:26.376Z,28.20
2023-01-25T03:24:29.509Z,23.10
2023-01-25T03:28:32.535Z,31.17
2023-01-25T03:32:37.798Z,29.00
2023-01-25T03:36:44.425Z,31.88
2023-01-25T03:40:48.218Z,24.13
2023-01-25T03:44:51.120Z,26.40
2023-01-25T03:48:55.840Z,32.05
2023-01-25T03:53:27.559Z,34.38
2023-01-25T03:57:30.896Z,29.17
2023-01-25T04:01:38.372Z,41.60
2023-01-25T04:05:43.077Z,32.38
2023-01-25T04:09:46.292Z,32.95
2023-01-25T04:13:49.571Z,30.15
2023-01-25T04:17:53.978Z,32.00
2023-01-25T04:22:00.781Z,40.50
2023-01-25T04:26:12.499Z,36.92
2023-01-25T04:30:16.547Z,37.85
2023-01-25T04:34:21.122Z,32.40
2023-01-25T04:38:25.949Z,29.85
2023-01-25T04:42:29.834Z,36.40
2023-01-25T04:46:33.503Z,36.22
2023-01-25T04:50:38.063Z,35.38
2023-01-25T04:54:42.475Z,36.80
2023-01-25T04:58:47.643Z,30.92
2023-01-25T05:02:50.599Z,24.42
2023-01-25T05:06:53.514Z,29.67
2023-01-25T05:10:57.963Z,28.67
2023-01-25T05:15:23.334Z,31.35
2023-01-25T05:19:26.238Z,28.92
2023-01-25T05:23:34.125Z,28.83
2023-01-25T05:27:38.632Z,27.23
2023-01-25T05:32:11.769Z,26.52
2023-01-25T05:36:15.435Z,28.17
2023-01-25T05:40:19.138Z,27.83
2023-01-25T05:44:23.918Z,24.67
2023-01-25T05:48:27.691Z,29.58
2023-01-25T05:52:30.544Z,27.58
2023-01-25T05:56:33.719Z,26.13
2023-01-25T06:00:38.305Z,25.98
2023-01-25T06:04:41.442Z,36.72
2023-01-25T06:08:46.572Z,30.33
2023-01-25T06:12:49.520Z,32.35
2023-01-25T06:16:54.537Z,29.52
2023-01-25T06:21:08.126Z,27.63
2023-01-25T06:25:13.821Z,30.02
2023-01-25T06:29:16.663Z,26.60
2023-01-25T06:33:20.797Z,26.60
2023-01-25T06:37:25.290Z,22.83
2023-01-25T06:41:28.080Z,28.30
2023-01-25T06:45:30.892Z,25.25
2023-01-25T06:49:35.063Z,24.17
2023-01-25T06:53:40.077Z,22.25
2023-01-25T06:57:42.860Z,24.48
2023-01-25T07:01:45.726Z,17.27
2023-01-25T07:05:51.077Z,24.25
2023-01-25T07:09:53.891Z,23.40
2023-01-25T07:13:56.638Z,20.77
2023-01-25T07:18:08.306Z,22.15
2023-01-25T07:22:19.061Z,16.80
2023-01-25T07:26:24.036Z,20.05
2023-01-25T07:30:26.888Z,24.27
2023-01-25T07:34:29.961Z,18.52
2023-01-25T07:38:35.057Z,21.35
2023-01-25T07:42:38.469Z,22.05
2023-01-25T07:46:48.991Z,22.95
2023-01-25T07:51:11.612Z,27.40
2023-01-25T07:55:16.180Z,20.45
2023-01-25T07:59:19.021Z,18.45
2023-01-25T08:03:22.224Z,17.70
2023-01-25T08:07:25.064Z,24.50
2023-01-25T08:11:31.585Z,17.83
2023-01-25T08:15:35.233Z,18.27
2023-01-25T08:19:38.147Z,15.75
2023-01-25T08:23:41.034Z,15.52
2023-01-25T08:27:45.482Z,18.10
2023-01-25T08:31:48.460Z,17.95
2023-01-25T08:35:56.069Z,18.60
2023-01-25T08:39:59.828Z,22.02
2023-01-25T08:44:04.310Z,18.10
2023-01-25T08:48:07.163Z,16.92
2023-01-25T08:52:09.984Z,18.42
2023-01-25T08:56:14.672Z,23.85
2023-01-25T09:00:20.343Z,16.23
2023-01-25T09:04:28.246Z,17.08
2023-01-25T09:08:31.115Z,19.70
2023-01-25T09:12:33.947Z,18.38
2023-01-25T09:16:38.366Z,16.77
2023-01-25T09:20:41.680Z,15.57
2023-01-25T09:24:44.981Z,15.55
2023-01-25T09:28:49.425Z,18.50
2023-01-25T09:32:54.109Z,17.55
2023-01-25T09:36:57.059Z,17.05
2023-01-25T09:41:13.726Z,14.90
2023-01-25T09:45:27.005Z,16.75
2023-01-25T09:49:51.886Z,19.23
2023-01-25T09:53:56.539Z,16.73
2023-01-25T09:58:02.684Z,16.85
2023-01-25T10:06:17.672Z,20.58
2023-01-25T10:10:24.268Z,21.08
2023-01-25T10:14:27.815Z,19.30
2023-01-25T10:18:36.399Z,18.83
2023-01-25T10:22:47.751Z,21.75
2023-01-25T10:26:56.668Z,14.50
2023-01-25T10:31:03.249Z,20.67
2023-01-25T10:35:29.249Z,20.33
2023-01-25T10:39:42.718Z,20.17
2023-01-25T10:43:45.497Z,19.00
2023-01-25T10:47:50.996Z,17.77
2023-01-25T10:51:54.200Z,18.33
2023-01-25T10:56:05.667Z,18.73
2023-01-25T11:00:24.780Z,21.17
2023-01-25T11:04:35.157Z,22.25
2023-01-25T11:08:41.442Z,20.23
2023-01-25T11:12:45.748Z,22.02
2023-01-25T11:16:49.345Z,20.50
2023-01-25T11:21:06.822Z,20.90
2023-01-25T11:25:30.873Z,23.55
2023-01-25T11:29:35.053Z,19.45
2023-01-25T11:33:37.915Z,29.77
2023-01-25T11:37:55.224Z,22.35
2023-01-25T11:42:07.802Z,27.35
2023-01-25T11:46:46.303Z,25.45
2023-01-25T11:50:56.793Z,26.63
2023-01-25T11:55:11.165Z,27.27
2023-01-25T11:59:30.771Z,29.23
2023-01-25T12:04:08.235Z,21.52
2023-01-25T12:08:26.187Z,23.50
2023-01-25T12:12:40.625Z,23.10
2023-01-25T12:17:06.804Z,25.83
2023-01-25T12:21:31.372Z,24.33
2023-01-25T12:25:43.681Z,28.42
2023-01-25T12:29:50.865Z,29.83
2023-01-25T12:33:58.722Z,27.58
2023-01-25T12:38:05.599Z,30.02
2023-01-25T12:42:17.032Z,23.60
2023-01-25T12:46:27.228Z,25.75
2023-01-25T12:50:35.889Z,27.45
2023-01-25T12:54:43.089Z,24.92
2023-01-25T12:58:51.355Z,24.35
2023-01-25T13:03:13.245Z,23.92
2023-01-25T13:07:23.507Z,32.72
2023-01-25T13:11:34.495Z,26.45
2023-01-25T13:15:39.461Z,30.75
2023-01-25T13:19:43.655Z,30.73
2023-01-25T13:23:47.865Z,22.50
2023-01-25T13:27:52.680Z,24.13
2023-01-25T13:31:58.836Z,31.15
2023-01-25T13:36:35.404Z,33.80
2023-01-25T13:40:39.335Z,26.30
2023-01-25T13:44:46.925Z,21.67
2023-01-25T13:49:04.805Z,22.27
2023-01-25T13:53:19.841Z,25.88
2023-01-25T13:57:24.340Z,25.80
2023-01-25T14:01:30.355Z,25.77
2023-01-25T14:05:33.169Z,34.65
2023-01-25T14:09:36.058Z,41.33
2023-01-25T14:13:38.879Z,53.63
2023-01-25T14:17:43.153Z,43.90
2023-01-25T14:21:45.949Z,48.58
2023-01-25T14:25:48.863Z,56.03
2023-01-25T14:29:51.852Z,39.28
2023-01-25T14:33:58.782Z,34.28
2023-01-25T14:38:02.063Z,34.42
2023-01-25T14:42:05.401Z,37.03
2023-01-25T14:46:23.406Z,30.48
2023-01-25T14:50:35.465Z,36.25
2023-01-25T14:54:46.777Z,35.65
2023-01-25T14:58:58.892Z,32.03
2023-01-25T15:03:06.737Z,31.60
2023-01-25T15:07:34.491Z,34.63
2023-01-25T15:11:45.143Z,28.35
2023-01-25T15:15:53.169Z,36.15
2023-01-25T15:19:56.017Z,38.97
2023-01-25T15:24:04.690Z,35.45
2023-01-25T15:28:07.696Z,38.97
2023-01-25T15:32:18.924Z,35.03
2023-01-25T15:36:21.799Z,34.53
2023-01-25T15:40:25.979Z,32.28
2023-01-25T15:44:28.853Z,28.40
2023-01-25T15:48:34.591Z,31.90
2023-01-25T15:52:37.384Z,30.92
2023-01-25T15:56:43.749Z,34.40
2023-01-25T16:00:46.632Z,42.87
2023-01-25T16:04:49.548Z,37.25
2023-01-25T16:08:52.591Z,36.38
2023-01-25T16:12:57.011Z,33.15
2023-01-25T16:17:02.583Z,40.05
2023-01-25T16:21:05.840Z,34.15
2023-01-25T16:25:09.385Z,31.90
2023-01-25T16:29:13.829Z,32.05
2023-01-25T16:33:16.629Z,35.42
2023-01-25T16:37:19.494Z,33.00
2023-01-25T16:41:22.410Z,34.45
2023-01-25T16:45:26.767Z,43.63
2023-01-25T16:49:30.627Z,35.88
2023-01-25T16:53:33.630Z,37.15
2023-01-25T16:57:36.488Z,39.28
2023-01-25T17:01:41.493Z,37.72
2023-01-25T17:05:44.694Z,35.65
2023-01-25T17:09:47.411Z,39.25
2023-01-25T17:13:50.699Z,34.35
2023-01-25T17:17:54.863Z,40.50
2023-01-25T17:21:59.047Z,32.53
2023-01-25T17:26:05.073Z,32.35
2023-01-25T17:30:09.778Z,37.90
2023-01-25T17:34:16.227Z,29.77
2023-01-25T17:38:20.219Z,30.13
2023-01-25T17:42:23.041Z,30.55
2023-01-25T17:46:29.762Z,28.20
2023-01-25T17:50:34.160Z,25.83
2023-01-25T17:54:37.280Z,27.40
2023-01-25T17:58:41.396Z,34.58
2023-01-25T18:02:46.167Z,33.13
2023-01-25T18:06:52.291Z,28.33
2023-01-25T18:19:04.897Z,29.95
2023-01-25T18:23:09.067Z,34.95
2023-01-25T18:27:19.656Z,30.70
2023-01-25T18:31:22.867Z,34.03
2023-01-25T18:35:25.885Z,27.27
2023-01-25T18:39:30.151Z,27.55
2023-01-25T18:43:33.477Z,29.98
2023-01-25T18:47:36.598Z,31.90
2023-01-25T18:52:01.934Z,28.55
2023-01-25T18:56:07.842Z,31.50
2023-01-25T19:00:14.837Z,30.55
2023-01-25T19:04:17.664Z,29.63
2023-01-25T19:08:20.463Z,34.05
2023-01-25T19:12:24.661Z,29.15
2023-01-25T19:16:27.492Z,31.20
2023-01-25T19:20:30.325Z,25.55
2023-01-25T19:24:33.153Z,23.85
2023-01-25T19:28:38.883Z,31.75
2023-01-25T19:32:41.791Z,29.48
2023-01-25T19:36:49.811Z,30.35
2023-01-25T19:40:52.818Z,33.15
2023-01-25T19:44:57.045Z,30.15
2023-01-25T19:49:01.968Z,31.02
2023-01-25T19:53:04.864Z,33.03
2023-01-25T19:57:07.675Z,33.47
2023-01-25T20:01:13.366Z,29.67
2023-01-25T20:05:16.339Z,26.83
2023-01-25T20:09:20.411Z,34.42
2023-01-25T20:13:23.404Z,26.58
2023-01-25T20:17:27.785Z,26.88
2023-01-25T20:21:33.471Z,24.83
2023-01-25T20:25:36.297Z,36.10
2023-01-25T20:29:39.846Z,30.83
2023-01-25T20:33:44.056Z,29.02
2023-01-25T20:37:49.203Z,26.35
2023-01-25T20:41:53.553Z,32.30
2023-01-25T20:45:56.888Z,32.00
2023-01-25T20:50:01.222Z,35.10
2023-01-25T20:54:04.112Z,35.05
2023-01-25T20:58:07.648Z,35.75
2023-01-25T21:02:11.631Z,30.95
2023-01-25T21:06:16.036Z,36.03
2023-01-25T21:10:19.218Z,32.17
2023-01-25T21:14:22.039Z,31.33
2023-01-25T21:18:24.972Z,32.38
2023-01-25T21:22:30.223Z,30.95
2023-01-25T21:26:34.413Z,30.77
2023-01-25T21:30:37.201Z,33.45
2023-01-25T21:34:40.000Z,33.88
2023-01-25T21:38:46.026Z,35.83
2023-01-25T21:42:48.780Z,34.67
2023-01-25T21:47:19.773Z,32.25
2023-01-25T21:51:33.073Z,32.72
2023-01-25T21:55:37.169Z,28.83
2023-01-25T21:59:40.775Z,30.88
2023-01-25T22:03:47.329Z,33.30
2023-01-25T22:07:50.112Z,32.60
2023-01-25T22:11:54.355Z,29.00
2023-01-25T22:15:59.932Z,30.60
2023-01-25T22:20:02.713Z,28.48
2023-01-25T22:24:06.634Z,32.40
2023-01-25T22:28:15.535Z,33.63
2023-01-25T22:32:18.351Z,29.15
2023-01-25T22:36:23.201Z,33.20
2023-01-25T22:40:26.143Z,27.25
2023-01-25T22:44:30.289Z,29.15
2023-01-25T22:48:33.752Z,31.92
2023-01-25T22:52:36.794Z,33.10
2023-01-25T22:56:40.259Z,30.70
2023-01-25T23:00:44.443Z,31.67
2023-01-25T23:04:47.303Z,34.25
2023-01-25T23:08:50.408Z,26.27
2023-01-25T23:12:53.905Z,28.77
2023-01-25T23:17:18.792Z,31.00
2023-01-25T23:21:23.896Z,30.27
2023-01-25T23:25:27.746Z,30.37
2023-01-25T23:29:30.539Z,28.40
2023-01-25T23:33:34.647Z,29.65
2023-01-25T23:37:37.408Z,27.30
2023-01-25T23:41:40.905Z,29.60
2023-01-25T23:45:44.527Z,33.33
2023-01-25T23:49:48.699Z,30.77
2023-01-25T23:53:53.410Z,27.70
2023-01-25T23:57:56.223Z,26.88
